»·PEaware :: PHTIM KBUR-KLAS

PHTIM :: KBUR-KLAS

FLIGHT INFORMATION

Flight Status: Arrived
Operator: Unknown
More flights by this operator :: More flights under this callsign
Pilot: Tim P. (6337)
Aircraft: CESSNA 172 SKYHAWK
(C172)
More flights by this aircraft type
Origin: KBUR Bob Hope-Burbank
United States
Destination: KLAS McCarran Intl
United States
More flights between these airports :: More routes between these airports
Route: +VNY3 DAG DAG DAG CRESO4
File this flight plan on PilotEdge
Remarks: I-5 rating
Altitude:
(Current/Filed)
11,000ft
Speed:
(Current/Filed)
110kts
Departed: 17-Nov-18 08:29 AM
Arrived: 17-Nov-18 10:27 AM
Distance/Time
Traveled:
194nm/1:57
Distance/Time
To Go:
Arrived

Flight Plot

Page will automatically refresh every two minutes.

Flight plan parsing failed; only flown route is shown


Map Options




Map Legend


Flown Route
Filed Route
Departure Airport
Arrival Airport
Navaid (VOR, NDB)
Fix

Horizontal Profiles

Position Reports

Time Latitude Longitude Heading Altitude Ground
Speed
17-Nov-18 07:45 34.200438 -118.363605 182 780ft 0kts
17-Nov-18 07:46 34.200438 -118.363605 182 780ft 0kts
17-Nov-18 07:47 34.200438 -118.363605 182 780ft 0kts
17-Nov-18 07:48 34.200438 -118.363605 182 780ft 0kts
17-Nov-18 07:49 34.200438 -118.363605 182 780ft 0kts
17-Nov-18 07:50 34.200438 -118.363605 182 780ft 0kts
17-Nov-18 07:51 34.200438 -118.363605 182 780ft 0kts
17-Nov-18 07:52 34.200438 -118.363605 182 780ft 0kts
17-Nov-18 07:53 34.200438 -118.363605 182 780ft 0kts
17-Nov-18 07:54 34.200438 -118.363605 182 780ft 0kts
17-Nov-18 07:55 34.200438 -118.363605 182 780ft 0kts
17-Nov-18 07:56 34.200438 -118.363605 182 780ft 0kts
17-Nov-18 07:57 34.200438 -118.363605 182 780ft 0kts
17-Nov-18 07:58 34.200438 -118.363605 182 780ft 0kts
17-Nov-18 07:59 34.200438 -118.363605 182 780ft 0kts
17-Nov-18 08:00 34.200438 -118.363605 182 780ft 0kts
17-Nov-18 08:01 34.200438 -118.363605 182 780ft 0kts
17-Nov-18 08:02 34.200438 -118.363605 182 780ft 0kts
17-Nov-18 08:03 34.200438 -118.363605 182 780ft 0kts
17-Nov-18 08:04 34.200438 -118.363605 182 780ft 0kts
17-Nov-18 08:05 34.200438 -118.363605 182 780ft 0kts
17-Nov-18 08:06 34.200438 -118.363605 182 780ft 0kts
17-Nov-18 08:07 34.200438 -118.363605 182 780ft 0kts
17-Nov-18 08:08 34.200438 -118.363605 182 780ft 0kts
17-Nov-18 08:09 34.200438 -118.363605 182 780ft 0kts
17-Nov-18 08:10 34.200438 -118.363605 182 780ft 0kts
17-Nov-18 08:11 34.200438 -118.363605 182 780ft 0kts
17-Nov-18 08:12 34.200438 -118.363605 182 780ft 0kts
17-Nov-18 08:13 34.200438 -118.363605 182 780ft 0kts
17-Nov-18 08:14 34.200438 -118.363605 182 780ft 0kts
17-Nov-18 08:15 34.200438 -118.363605 182 780ft 0kts
17-Nov-18 08:16 34.200438 -118.363605 182 780ft 0kts
17-Nov-18 08:17 34.200438 -118.363605 182 780ft 0kts
17-Nov-18 08:18 34.200438 -118.363605 182 780ft 0kts
17-Nov-18 08:19 34.200438 -118.363605 182 780ft 0kts
17-Nov-18 08:20 34.200438 -118.363605 182 780ft 0kts
17-Nov-18 08:21 34.200438 -118.363605 182 780ft 0kts
17-Nov-18 08:22 34.200438 -118.363605 182 780ft 0kts
17-Nov-18 08:23 34.199630 -118.364538 180 780ft 7kts
17-Nov-18 08:24 34.198917 -118.361295 90 780ft 15kts
17-Nov-18 08:25 34.200574 -118.358361 346 780ft 15kts
17-Nov-18 08:26 34.205383 -118.359692 346 780ft 17kts
17-Nov-18 08:27 34.210235 -118.361040 348 780ft 17kts
17-Nov-18 08:28 34.211999 -118.361329 48 780ft 0kts
17-Nov-18 08:29 34.211999 -118.361329 48 780ft 0kts
17-Nov-18 08:30 34.211999 -118.361329 48 780ft 0kts
17-Nov-18 08:31 34.211999 -118.361329 48 780ft 0kts
17-Nov-18 08:32 34.210654 -118.360026 166 780ft 49kts
17-Nov-18 08:33 34.189040 -118.354404 200 1385ft 80kts
17-Nov-18 08:34 34.173424 -118.371091 233 2110ft 76kts
17-Nov-18 08:35 34.158163 -118.388940 232 2803ft 77kts
17-Nov-18 08:36 34.159100 -118.404382 352 3445ft 78kts
17-Nov-18 08:37 34.181179 -118.402587 354 4019ft 80kts
17-Nov-18 08:38 34.203473 -118.400952 355 4578ft 81kts
17-Nov-18 08:39 34.225919 -118.398127 359 5118ft 82kts
17-Nov-18 08:40 34.248118 -118.399794 340 5643ft 79kts
17-Nov-18 08:41 34.268670 -118.408505 330 6161ft 78kts
17-Nov-18 08:42 34.289138 -118.418052 334 6630ft 80kts
17-Nov-18 08:43 34.309931 -118.427218 331 7084ft 80kts
17-Nov-18 08:44 34.330306 -118.437347 325 7553ft 77kts
17-Nov-18 08:45 34.349799 -118.447163 332 8038ft 75kts
17-Nov-18 08:46 34.369322 -118.455432 333 8498ft 76kts
17-Nov-18 08:47 34.389149 -118.451290 49 8878ft 97kts
17-Nov-18 08:48 34.405554 -118.425385 45 9270ft 98kts
17-Nov-18 08:49 34.422165 -118.399046 45 9663ft 98kts
17-Nov-18 08:50 34.438695 -118.372733 45 10054ft 97kts
17-Nov-18 08:51 34.454812 -118.347109 45 10444ft 95kts
17-Nov-18 08:52 34.470687 -118.321835 45 10835ft 94kts
17-Nov-18 08:53 34.486430 -118.296802 45 11209ft 95kts
17-Nov-18 08:54 34.506450 -118.264899 48 11009ft 129kts
17-Nov-18 08:55 34.527818 -118.230556 47 11002ft 127kts
17-Nov-18 08:56 34.549181 -118.196370 47 10997ft 127kts
17-Nov-18 08:57 34.570483 -118.162311 47 10991ft 127kts
17-Nov-18 08:58 34.591796 -118.128158 47 10986ft 127kts
17-Nov-18 08:59 34.613023 -118.094102 47 10982ft 127kts
17-Nov-18 09:00 34.632649 -118.058611 78 10967ft 132kts
17-Nov-18 09:01 34.637083 -118.015466 78 10965ft 131kts
17-Nov-18 09:02 34.641972 -117.971412 79 10962ft 131kts
17-Nov-18 09:03 34.646759 -117.927484 79 10960ft 131kts
17-Nov-18 09:04 34.651558 -117.883436 79 10959ft 131kts
17-Nov-18 09:05 34.656335 -117.839415 79 10959ft 131kts
17-Nov-18 09:06 34.661102 -117.795324 79 10959ft 131kts
17-Nov-18 09:07 34.667506 -117.751843 67 10962ft 130kts
17-Nov-18 09:08 34.678367 -117.709791 68 10964ft 130kts
17-Nov-18 09:09 34.689162 -117.667740 68 10966ft 130kts
17-Nov-18 09:10 34.699874 -117.625896 68 10969ft 130kts
17-Nov-18 09:11 34.710632 -117.583858 68 10973ft 130kts
17-Nov-18 09:12 34.721390 -117.541748 68 10977ft 130kts
17-Nov-18 09:13 34.732115 -117.499708 68 10982ft 130kts
17-Nov-18 09:14 34.742867 -117.457485 68 10987ft 130kts
17-Nov-18 09:15 34.753575 -117.415383 68 10993ft 130kts
17-Nov-18 09:16 34.764310 -117.373226 68 11000ft 130kts
17-Nov-18 09:17 34.774816 -117.331776 69 10999ft 130kts
17-Nov-18 09:18 34.785502 -117.289493 69 10990ft 130kts
17-Nov-18 09:19 34.796142 -117.247304 69 10982ft 130kts
17-Nov-18 09:20 34.806773 -117.205142 69 10975ft 130kts
17-Nov-18 09:21 34.817413 -117.162878 69 10968ft 130kts
17-Nov-18 09:22 34.828028 -117.120664 69 10962ft 130kts
17-Nov-18 09:23 34.838630 -117.078412 69 10956ft 130kts
17-Nov-18 09:24 34.849214 -117.036178 69 10951ft 130kts
17-Nov-18 09:25 34.859796 -116.993875 69 10947ft 130kts
17-Nov-18 09:26 34.870349 -116.951611 69 10943ft 130kts
17-Nov-18 09:27 34.880911 -116.909259 69 10940ft 130kts
17-Nov-18 09:28 34.891418 -116.867046 69 10938ft 130kts
17-Nov-18 09:29 34.901960 -116.824616 69 10936ft 130kts
17-Nov-18 09:30 34.912463 -116.782276 69 10935ft 130kts
17-Nov-18 09:31 34.922964 -116.739904 69 10934ft 130kts
17-Nov-18 09:32 34.933432 -116.697575 69 10934ft 130kts
17-Nov-18 09:33 34.943894 -116.655172 69 10935ft 130kts
17-Nov-18 09:34 34.954334 -116.612803 69 10937ft 130kts
17-Nov-18 09:35 34.965944 -116.571048 55 10941ft 128kts
17-Nov-18 09:36 34.983082 -116.532835 56 10943ft 129kts
17-Nov-18 09:37 35.000190 -116.494351 56 10947ft 129kts
17-Nov-18 09:38 35.017275 -116.455853 56 10950ft 129kts
17-Nov-18 09:39 35.034297 -116.417540 56 10954ft 129kts
17-Nov-18 09:40 35.051398 -116.379006 56 10959ft 129kts
17-Nov-18 09:41 35.067633 -116.342350 56 10960ft 129kts
17-Nov-18 09:42 35.084648 -116.303918 57 10949ft 129kts
17-Nov-18 09:43 35.100878 -116.267098 57 10939ft 129kts
17-Nov-18 09:44 35.116939 -116.230703 56 10936ft 129kts
17-Nov-18 09:45 35.133912 -116.192209 56 10933ft 129kts
17-Nov-18 09:46 35.150945 -116.153525 56 10931ft 129kts
17-Nov-18 09:47 35.167916 -116.114941 56 10929ft 129kts
17-Nov-18 09:48 35.182038 -116.082804 56 10928ft 129kts
17-Nov-18 09:49 35.198993 -116.044177 56 10928ft 129kts
17-Nov-18 09:50 35.218824 -115.998975 56 10928ft 129kts
17-Nov-18 09:51 35.232937 -115.966765 56 10928ft 129kts
17-Nov-18 09:52 35.252664 -115.921662 56 10929ft 129kts
17-Nov-18 09:53 35.266753 -115.889405 56 10930ft 129kts
17-Nov-18 09:54 35.283692 -115.850592 56 10932ft 129kts
17-Nov-18 09:55 35.300556 -115.811913 56 10934ft 129kts
17-Nov-18 09:56 35.319769 -115.775580 40 10940ft 126kts
17-Nov-18 09:57 35.343602 -115.743919 41 10943ft 126kts
17-Nov-18 09:58 35.367491 -115.712166 41 10872ft 131kts
17-Nov-18 09:59 35.393459 -115.677483 42 10478ft 141kts
17-Nov-18 10:00 35.416085 -115.647239 45 10141ft 142kts
17-Nov-18 10:01 35.441775 -115.612863 45 10020ft 130kts
17-Nov-18 10:02 35.465724 -115.580877 45 10019ft 126kts
17-Nov-18 10:03 35.489319 -115.549290 45 10020ft 125kts
17-Nov-18 10:04 35.512873 -115.517721 45 10022ft 125kts
17-Nov-18 10:05 35.536442 -115.486127 45 10024ft 125kts
17-Nov-18 10:06 35.560066 -115.454438 45 10026ft 125kts
17-Nov-18 10:07 35.584440 -115.421721 45 9767ft 139kts
17-Nov-18 10:08 35.610868 -115.385973 46 9270ft 141kts
17-Nov-18 10:09 35.637219 -115.350461 46 8774ft 140kts
17-Nov-18 10:10 35.662479 -115.316314 47 8136ft 141kts
17-Nov-18 10:11 35.688923 -115.280621 47 7440ft 141kts
17-Nov-18 10:12 35.714715 -115.245676 47 7011ft 127kts
17-Nov-18 10:13 35.737481 -115.215180 46 7010ft 124kts
17-Nov-18 10:14 35.761909 -115.182324 47 7011ft 133kts
17-Nov-18 10:15 35.792455 -115.157420 29 7013ft 130kts
17-Nov-18 10:16 35.823123 -115.134643 29 7009ft 128kts
17-Nov-18 10:17 35.853722 -115.111695 29 7005ft 128kts
17-Nov-18 10:18 35.884113 -115.088682 29 7002ft 128kts
17-Nov-18 10:19 35.914562 -115.065409 29 6997ft 128kts
17-Nov-18 10:20 35.945849 -115.041327 30 6673ft 135kts
17-Nov-18 10:21 35.978517 -115.022421 342 6165ft 131kts
17-Nov-18 10:22 36.005409 -115.052114 314 5664ft 131kts
17-Nov-18 10:23 36.029985 -115.083388 314 5476ft 119kts
17-Nov-18 10:24 36.052407 -115.111904 314 5542ft 114kts
17-Nov-18 10:25 36.080228 -115.123883 25 5518ft 117kts
17-Nov-18 10:26 36.108193 -115.104272 28 5515ft 117kts
17-Nov-18 10:27 36.134070 -115.100495 298 4662ft 113kts
17-Nov-18 10:28 36.142286 -115.134197 200 3458ft 117kts
17-Nov-18 10:29 36.112666 -115.148986 204 2405ft 107kts
17-Nov-18 10:30 36.095184 -115.159010 204 2118ft 32kts
17-Nov-18 10:31 36.094133 -115.160677 305 2118ft 0kts
17-Nov-18 10:32 36.094411 -115.162784 270 2118ft 13kts
17-Nov-18 10:33 36.094174 -115.164352 179 2118ft 0kts
17-Nov-18 10:34 36.094174 -115.164352 179 2118ft 0kts
17-Nov-18 10:35 36.094174 -115.164352 179 2118ft 0kts
17-Nov-18 10:36 36.094174 -115.164352 179 2118ft 0kts
17-Nov-18 10:37 36.094174 -115.164352 179 2118ft 0kts
17-Nov-18 10:38 36.094174 -115.164352 179 2118ft 0kts
17-Nov-18 10:39 36.094174 -115.164352 179 2118ft 0kts

Navigation Log

Ident Type
Flight plan parsing failed, navigation log unavailable